Nearby METAR Reports

 

KLBE - Latrobe/Westmorl, Pennsylvania, USA
Distance from station: SE 16mi, 26km
Updated: Tue, 03-Mar-2015 4:50pm EST
Light rain, Mist, Overcast
Light rain, Mist, Overcast
 Wind from SSW
Wind: SSW 12 mph , 19 km/h
Temperature: 45°F , 7°C
Wind Chill: 39°F , 4°C
Dew Point: 45°F , 7°C
Humidity: 100%
Barometer: 29.77 inHg , 1008.1 hPa
Summary: Light rain, Mist
Clouds: Overcast
Visibility: 6 miles , 10 km
Cloud details: Overcast 1400 ft
2015/03/03 21:50 KLBE 032150Z 21010KT 6SM -RA BR OVC014 07/07 A2977
KAGC - Pittsburgh/Alleg, Pennsylvania, USA
Distance from station: WSW 18mi, 30km
Updated: Tue, 03-Mar-2015 5:00pm EST
Light rain, Mist, Overcast
Light rain, Mist, Overcast
 Wind from S
Wind: S 12 mph , 19 km/h
Temperature: 37°F , 3°C
Wind Chill: 29°F , -2°C
Dew Point: 34°F , 1°C
Humidity: 87%
Barometer: 29.72 inHg , 1006.4 hPa
Summary: Light rain, Mist
Clouds: Overcast
Visibility: 1 mile , 2 km
Cloud details: Overcast 400 ft
2015/03/03 22:00 KAGC 032200Z 17010KT 1SM R28/4500VP6000FT -RA BR OVC004 03/01 A2972 RMK AO2 CIG 003V008 P0001 T00330011
 
KBTP - Butler Co., Pennsylvania, USA
Distance from station: NW 29mi, 47km
Updated: Tue, 03-Mar-2015 5:15pm EST
Overcast
Overcast
 Wind from calm
Wind: Calm
Temperature: 36°F , 2°C
Dew Point: 34°F , 1°C
Humidity: 93%
Barometer: 29.74 inHg , 1007.1 hPa
Clouds: Overcast
Visibility: 1 1/4 miles , 2 km
Cloud details: Overcast 400 ft
2015/03/03 22:15 KBTP 032215Z AUTO 00000KT 1 1/4SM OVC004 02/01 A2974 RMK AO1 P0002
KIDI - Indiana/Stewart, Pennsylvania, USA
Distance from station: ENE 29mi, 47km
Updated: Tue, 03-Mar-2015 5:15pm EST
Mist, Overcast
Mist, Overcast
 Wind from SSE
Wind: SSE 10 mph , 17 km/h, Gust: 20 mph , 31 km/h
Temperature: 34°F , 1°C
Wind Chill: 26°F , -3°C
Dew Point: 34°F , 1°C
Humidity: 100%
Barometer: 29.78 inHg , 1008.5 hPa
Summary: Mist
Clouds: Overcast
Visibility: 3/4 mile , 5 km
Cloud details: Overcast 1100 ft
2015/03/03 22:15 KIDI 032215Z AUTO 16009G17KT 3/4SM BR OVC011 01/01 A2978 RMK A01
 
KPIT - Pittsburgh, Pennsylvania, USA
Distance from station: W 36mi, 57km
Updated: Tue, 03-Mar-2015 4:51pm EST
Light rain, Mist, Overcast
Light rain, Mist, Overcast
 Wind from SSE
Wind: SSE 7 mph , 11 km/h
Temperature: 37°F , 3°C
Wind Chill: 32°F , 0°C
Dew Point: 37°F , 3°C
Humidity: 100%
Barometer: 29.72 inHg , 1006.4 hPa
Summary: Light rain, Mist
Clouds: Overcast
Visibility: 1 1/2 miles , 2 km
Cloud details: Overcast 600 ft
2015/03/03 21:51 KPIT 032151Z 16006KT 1 1/2SM R28R/5000VP6000FT -RA BR OVC006 03/03 A2972 RMK AO2 SLP086 P0013 T00280028
KJST - Johnstown, Pennsylvania, USA
Distance from station: ESE 41mi, 66km
Updated: Tue, 03-Mar-2015 5:21pm EST
Freezing rain, Mist, Overcast
Freezing rain, Mist, Overcast
 Wind from S
Wind: S 17 mph , 28 km/h, Gust: 24 mph , 39 km/h
Temperature: 30°F , -1°C
Wind Chill: 18°F , -8°C
Dew Point: 28°F , -2°C
Humidity: 93%
Barometer: 29.76 inHg , 1007.8 hPa
Summary: Freezing rain, Mist
Clouds: Overcast
Visibility: 1 1/2 miles , 2 km
Cloud details: Overcast 600 ft
2015/03/03 22:21 KJST 032221Z AUTO 17015G21KT 1 1/2SM FZRA BR OVC006 M01/M02 A2976 RMK AO2 UPB09E21FZRAE09B21 P0006 I1000 T10061017
 
KAFJ - Washington, Pennsylvania, USA
Distance from station: WSW 42mi, 68km
Updated: Tue, 03-Mar-2015 5:15pm EST
Overcast
Overcast
 Wind from SW
Wind: SW 14 mph , 22 km/h, Gust: 22 mph , 35 km/h
Temperature: 45°F , 7°C
Wind Chill: 39°F , 4°C
Dew Point: 45°F , 7°C
Humidity: 100%
Barometer: 29.75 inHg , 1007.5 hPa
Clouds: Overcast
Visibility: 7 miles , 11 km
Cloud details: Mostly cloudy 800 ft
Overcast 1600 ft
2015/03/03 22:15 KAFJ 032215Z AUTO 22012G19KT 7SM BKN008 OVC016 07/07 A2975 RMK AO1 P0004
KBVI - Beaver Falls Arp, Pennsylvania, USA
Distance from station: WNW 48mi, 77km
Updated: Tue, 03-Mar-2015 4:47pm EST
Light rain, Overcast
Light rain, Overcast
 Wind from calm
Wind: Calm
Temperature: 34°F , 1°C
Dew Point: 32°F , 0°C
Humidity: 93%
Barometer: 29.72 inHg , 1006.4 hPa
Summary: Light rain
Clouds: Overcast
Visibility: 3/4 mile , 5 km
Cloud details: Overcast 300 ft
2015/03/03 21:47 KBVI 032147Z 00000KT 3/4SM -RA OVC003 01/00 A2972